Time;durP1;ratioP1;P1;durP2;ratioP2;P2;SDS_P1;SDS_P2;PMS_P1;PMS_P2;Temp;Humidity;BMP_temperature;BMP_pressure;BME280_temperature;BME280_humidity;BME280_pressure;Samples;Min_cycle;Max_cycle;Signal;HPM_P1;HPM_P2
2021/04/11 00:00:28;;;;;;;20.00;17.60;;;8.40;91.10;;;;;;5018770;28;20032;-78
2021/04/11 00:02:54;;;;;;;20.10;16.87;;;8.40;91.00;;;;;;5025494;28;20439;-78
2021/04/11 00:05:22;;;;;;;19.43;16.37;;;8.30;91.00;;;;;;5046562;28;20038;-78
2021/04/11 00:07:47;;;;;;;16.90;15.10;;;8.30;91.10;;;;;;5062327;28;20116;-78
2021/04/11 00:10:16;;;;;;;17.70;14.87;;;8.40;91.20;;;;;;5035607;28;20133;-78
2021/04/11 00:12:42;;;;;;;16.13;14.30;;;8.40;91.10;;;;;;5010828;28;20046;-78
2021/04/11 00:15:08;;;;;;;15.53;13.90;;;8.30;91.10;;;;;;5011703;28;20030;-78
2021/04/11 00:17:34;;;;;;;16.27;13.93;;;8.30;91.10;;;;;;5023388;28;20025;-78
2021/04/11 00:20:00;;;;;;;13.67;12.27;;;8.30;91.20;;;;;;5030087;28;20064;-77
2021/04/11 00:22:25;;;;;;;13.47;12.07;;;8.30;91.00;;;;;;5024137;28;20068;-78
2021/04/11 00:24:51;;;;;;;13.43;12.13;;;8.30;90.90;;;;;;5012669;28;20065;-78
2021/04/11 00:27:17;;;;;;;13.97;11.83;;;8.20;90.90;;;;;;5045820;28;20040;-77
2021/04/11 00:29:43;;;;;;;13.90;12.40;;;8.10;90.80;;;;;;5031936;28;20037;-77
2021/04/11 00:32:09;;;;;;;13.73;12.33;;;8.10;90.90;;;;;;5028197;28;20045;-77
2021/04/11 00:34:34;;;;;;;14.37;12.87;;;8.10;91.00;;;;;;5060879;28;20072;-77
2021/04/11 00:37:00;;;;;;;13.40;12.10;;;8.10;91.00;;;;;;5015471;28;20030;-78
2021/04/11 00:39:26;;;;;;;13.43;12.03;;;8.10;91.00;;;;;;5009870;28;20045;-77
2021/04/11 00:41:56;;;;;;;12.93;11.73;;;8.10;91.00;;;;;;5000690;28;20041;-77
2021/04/11 00:44:22;;;;;;;12.23;11.03;;;8.00;90.90;;;;;;5042184;28;20065;-77
2021/04/11 00:46:55;;;;;;;11.67;10.47;;;7.90;90.90;;;;;;5030070;28;20044;-77
2021/04/11 00:49:22;;;;;;;12.17;10.83;;;7.80;90.80;;;;;;5062749;28;20057;-77
2021/04/11 00:51:48;;;;;;;12.53;11.37;;;7.80;90.90;;;;;;5061602;28;20039;-77
2021/04/11 00:54:14;;;;;;;11.83;10.70;;;7.70;90.90;;;;;;5029910;28;20030;-76
2021/04/11 00:56:40;;;;;;;12.03;10.83;;;7.70;90.90;;;;;;5028959;28;20021;-76
2021/04/11 00:59:10;;;;;;;12.37;10.67;;;7.70;90.70;;;;;;5028243;28;20095;-77
2021/04/11 01:01:37;;;;;;;11.07;9.93;;;7.60;90.90;;;;;;5060581;28;20287;-76
2021/04/11 01:04:11;;;;;;;10.93;9.93;;;7.60;91.00;;;;;;5025246;28;20475;-76
2021/04/11 01:06:43;;;;;;;11.17;9.73;;;7.60;91.00;;;;;;5010589;28;20029;-77
2021/04/11 01:09:21;;;;;;;10.70;9.70;;;7.70;91.00;;;;;;5030191;28;20026;-76
2021/04/11 01:11:47;;;;;;;11.03;9.33;;;7.70;90.90;;;;;;5029538;28;20025;-76
2021/04/11 01:14:15;;;;;;;10.23;9.13;;;7.70;90.90;;;;;;5028706;28;20112;-76
2021/04/11 01:16:42;;;;;;;9.47;8.57;;;7.70;90.90;;;;;;5029144;28;20105;-76
2021/04/11 01:19:10;;;;;;;10.10;9.10;;;7.60;90.70;;;;;;5029549;28;20456;-76
2021/04/11 01:21:39;;;;;;;9.73;8.73;;;7.60;90.70;;;;;;5027949;28;20064;-75
2021/04/11 01:24:20;;;;;;;9.53;8.63;;;7.40;90.60;;;;;;5059662;28;20393;-76
2021/04/11 01:26:49;;;;;;;10.97;8.87;;;7.50;90.40;;;;;;5019204;28;20033;-76
2021/04/11 01:29:15;;;;;;;10.00;9.00;;;7.40;90.30;;;;;;5025685;28;20040;-76
2021/04/11 01:31:41;;;;;;;9.23;8.43;;;7.20;90.30;;;;;;5035353;28;20030;-76
2021/04/11 01:34:08;;;;;;;9.70;8.77;;;7.20;90.30;;;;;;5010821;28;20485;-76
2021/04/11 01:36:37;;;;;;;9.60;8.70;;;7.00;90.40;;;;;;5015592;28;20034;-76
2021/04/11 01:39:09;;;;;;;9.37;8.47;;;7.00;90.50;;;;;;5028978;28;20026;-77
2021/04/11 01:41:39;;;;;;;7.23;6.47;;;7.00;90.40;;;;;;5026408;28;20037;-76
2021/04/11 01:44:05;;;;;;;7.93;7.20;;;6.90;90.30;;;;;;5024161;28;20037;-76
2021/04/11 01:46:32;;;;;;;6.87;6.27;;;6.90;90.40;;;;;;5027361;28;20083;-76
2021/04/11 01:48:58;;;;;;;7.73;6.77;;;6.70;90.30;;;;;;5025400;28;20033;-76
2021/04/11 01:51:28;;;;;;;6.83;6.20;;;6.70;90.40;;;;;;5060676;28;20508;-77
2021/04/11 01:53:54;;;;;;;7.47;6.67;;;6.60;90.40;;;;;;5029618;28;20052;-76
2021/04/11 01:56:20;;;;;;;6.73;6.00;;;6.60;90.50;;;;;;5027220;28;20473;-76
2021/04/11 01:58:46;;;;;;;6.07;5.47;;;6.70;90.60;;;;;;5028622;28;20033;-75
2021/04/11 02:01:19;;;;;;;5.93;5.33;;;6.70;90.40;;;;;;5028473;28;20045;-76
2021/04/11 02:03:45;;;;;;;6.20;5.00;;;6.60;90.40;;;;;;5025574;28;20899;-75
2021/04/11 02:06:13;;;;;;;5.77;5.00;;;6.60;90.40;;;;;;5027406;28;20017;-75
2021/04/11 02:08:44;;;;;;;5.40;4.90;;;6.50;90.20;;;;;;5027285;28;20099;-75
2021/04/11 02:11:10;;;;;;;5.47;4.97;;;6.50;90.50;;;;;;5028094;28;20021;-75
2021/04/11 02:13:38;;;;;;;5.83;4.93;;;6.50;90.40;;;;;;5007588;28;20402;-76
2021/04/11 02:16:06;;;;;;;5.77;5.13;;;6.50;90.50;;;;;;5017566;28;20045;-76
2021/04/11 02:18:35;;;;;;;4.83;4.43;;;6.60;90.60;;;;;;5022672;28;20049;-76
2021/04/11 02:21:03;;;;;;;5.87;5.37;;;6.70;90.60;;;;;;5010120;28;20084;-76
2021/04/11 02:23:30;;;;;;;4.97;4.57;;;6.70;90.50;;;;;;5024793;28;20792;-75
2021/04/11 02:25:56;;;;;;;5.37;4.87;;;6.60;90.50;;;;;;5028131;28;20465;-75
2021/04/11 02:28:26;;;;;;;6.20;5.70;;;6.60;90.30;;;;;;5028605;28;20033;-75
2021/04/11 02:30:55;;;;;;;6.60;6.00;;;6.50;90.20;;;;;;5030753;28;20044;-76
2021/04/11 02:33:22;;;;;;;6.47;5.87;;;6.50;90.30;;;;;;5031977;28;20033;-76
2021/04/11 02:35:48;;;;;;;4.90;4.50;;;6.50;90.40;;;;;;5012649;28;20125;-75
2021/04/11 02:38:14;;;;;;;6.00;4.63;;;6.50;90.30;;;;;;5044804;28;20084;-75
2021/04/11 02:40:44;;;;;;;4.57;4.17;;;6.50;90.30;;;;;;5028284;28;20039;-74
2021/04/11 02:43:12;;;;;;;4.93;4.53;;;6.40;90.20;;;;;;5029647;28;20072;-75
2021/04/11 02:45:43;;;;;;;6.00;5.50;;;6.40;90.20;;;;;;5027599;28;20029;-76
2021/04/11 02:48:11;;;;;;;5.60;5.10;;;6.40;90.30;;;;;;5027801;28;20025;-75
2021/04/11 02:50:39;;;;;;;5.97;5.40;;;6.30;90.10;;;;;;5030238;28;20057;-75
2021/04/11 02:53:09;;;;;;;6.07;5.47;;;6.30;90.20;;;;;;5030008;28;20457;-75
2021/04/11 02:55:40;;;;;;;7.33;6.63;;;6.30;90.30;;;;;;5031852;28;20030;-76
2021/04/11 02:58:06;;;;;;;7.47;6.67;;;6.30;90.20;;;;;;5033919;28;20025;-76
2021/04/11 03:00:35;;;;;;;7.63;6.90;;;6.20;90.20;;;;;;5036411;28;20032;-77
2021/04/11 03:03:01;;;;;;;6.27;5.67;;;6.30;90.20;;;;;;5037598;28;20045;-76
2021/04/11 03:05:28;;;;;;;5.97;5.37;;;6.30;90.10;;;;;;5042192;28;20044;-76
2021/04/11 03:08:01;;;;;;;7.07;5.97;;;6.20;90.00;;;;;;5039976;28;20048;-76
2021/04/11 03:10:47;;;;;;;6.38;5.78;;;6.20;90.10;;;;;;5053437;28;20021;-76
2021/04/11 03:13:15;;;;;;;7.20;6.13;;;6.10;89.80;;;;;;5040921;28;20068;-77
2021/04/11 03:15:42;;;;;;;7.07;6.37;;;5.90;89.70;;;;;;5064666;28;20029;-76
2021/04/11 03:18:09;;;;;;;7.83;6.90;;;5.80;89.90;;;;;;5031354;28;20533;-76
2021/04/11 03:20:38;;;;;;;7.83;6.47;;;5.80;90.00;;;;;;5030891;28;20634;-76
2021/04/11 03:23:06;;;;;;;8.47;7.57;;;5.80;90.00;;;;;;5030436;28;20405;-76
2021/04/11 03:25:35;;;;;;;8.60;7.40;;;5.70;90.10;;;;;;5032655;28;20072;-75
2021/04/11 03:28:15;;;;;;;10.23;7.97;;;5.80;90.30;;;;;;5031153;28;20025;-76
2021/04/11 03:30:49;;;;;;;9.43;7.60;;;5.90;90.30;;;;;;5031652;28;20039;-76
2021/04/11 03:33:17;;;;;;;8.87;7.97;;;5.90;90.30;;;;;;5064355;28;20041;-75
2021/04/11 03:35:46;;;;;;;8.63;7.47;;;5.80;90.10;;;;;;5029997;28;20033;-76
2021/04/11 03:38:14;;;;;;;12.37;8.47;;;5.70;90.20;;;;;;5032670;28;20029;-76
2021/04/11 03:40:42;;;;;;;11.27;10.07;;;5.70;90.30;;;;;;5030675;28;20030;-76
2021/04/11 03:43:22;;;;;;;13.90;11.37;;;5.60;90.30;;;;;;5026205;28;20034;-75
2021/04/11 03:45:48;;;;;;;12.30;9.47;;;5.70;90.60;;;;;;5025127;28;20037;-76
2021/04/11 03:48:25;;;;;;;9.00;7.83;;;5.70;90.50;;;;;;5030426;28;20029;-76
2021/04/11 03:51:16;;;;;;;9.10;7.60;;;5.60;90.20;;;;;;5029839;28;20112;-75
2021/04/11 03:53:49;;;;;;;7.77;6.97;;;5.60;90.40;;;;;;5030789;28;20026;-76
2021/04/11 03:56:18;;;;;;;9.55;7.22;;;5.60;90.40;;;;;;5029340;28;20037;-76
2021/04/11 03:58:47;;;;;;;10.67;7.37;;;5.60;90.40;;;;;;5030246;28;20478;-76
2021/04/11 04:01:17;;;;;;;7.73;6.93;;;5.60;90.50;;;;;;5020329;28;20132;-76
2021/04/11 04:03:44;;;;;;;11.37;8.83;;;5.70;90.40;;;;;;5029884;28;20041;-76
2021/04/11 04:06:34;;;;;;;11.67;10.47;;;5.70;90.40;;;;;;5031147;28;20029;-76
2021/04/11 04:08:59;;;;;;;10.30;9.20;;;5.60;90.30;;;;;;5019950;28;20660;-76
2021/04/11 04:11:47;;;;;;;10.50;8.30;;;5.50;90.40;;;;;;5029022;28;20120;-76
2021/04/11 04:14:39;;;;;;;9.73;8.37;;;5.50;90.50;;;;;;5031401;28;20558;-76
2021/04/11 04:17:46;;;;;;;9.65;7.38;;;5.60;90.50;;;;;;5028253;28;20065;-76
2021/04/11 04:20:27;;;;;;;10.73;7.90;;;5.50;90.40;;;;;;5028755;28;20037;-76
2021/04/11 04:23:00;;;;;;;9.63;7.10;;;5.60;90.50;;;;;;5062285;28;20041;-75
2021/04/11 04:25:47;;;;;;;9.30;7.23;;;5.50;90.40;;;;;;5064145;28;20393;-76
2021/04/11 04:28:25;;;;;;;8.27;7.47;;;5.50;90.50;;;;;;5030374;28;20049;-76
2021/04/11 04:31:09;;;;;;;9.63;7.20;;;5.60;90.50;;;;;;5030231;28;20029;-75
2021/04/11 04:33:43;;;;;;;8.57;7.77;;;5.60;90.60;;;;;;5031416;28;20116;-75
2021/04/11 04:36:27;;;;;;;9.60;7.90;;;5.70;90.50;;;;;;5029389;28;20112;-76
2021/04/11 04:39:04;;;;;;;9.77;8.77;;;5.70;90.40;;;;;;5048041;28;20037;-75
2021/04/11 04:41:50;;;;;;;10.37;7.93;;;5.70;90.40;;;;;;5011846;28;20030;-76
2021/04/11 04:44:59;;;;;;;8.90;7.70;;;5.80;90.50;;;;;;5025480;28;20033;-76
2021/04/11 04:47:43;;;;;;;9.97;7.90;;;5.80;90.30;;;;;;4988174;28;20031;-77
2021/04/11 04:50:18;;;;;;;9.63;7.67;;;5.70;90.40;;;;;;4989499;28;20053;-77
2021/04/11 04:52:51;;;;;;;8.97;8.07;;;5.80;90.40;;;;;;5003810;28;20422;-77
2021/04/11 04:55:22;;;;;;;8.77;7.87;;;5.70;90.20;;;;;;5027957;28;20029;-77
2021/04/11 04:57:58;;;;;;;10.57;8.37;;;5.60;90.30;;;;;;5030280;28;20022;-77
2021/04/11 05:00:27;;;;;;;10.33;7.60;;;5.60;90.20;;;;;;5028968;28;20060;-77
2021/04/11 05:03:05;;;;;;;7.63;6.80;;;5.60;90.10;;;;;;5025692;28;20112;-76
2021/04/11 05:05:34;;;;;;;7.57;6.57;;;5.60;90.30;;;;;;5024753;28;20503;-76
2021/04/11 05:08:14;;;;;;;8.33;7.13;;;5.50;90.20;;;;;;5026860;28;20152;-77
2021/04/11 05:10:48;;;;;;;6.97;6.20;;;5.40;90.10;;;;;;5022139;28;20017;-77
2021/04/11 05:13:38;;;;;;;7.50;6.33;;;5.40;90.30;;;;;;5028506;28;20119;-76
2021/04/11 05:16:18;;;;;;;8.93;8.03;;;5.50;90.60;;;;;;5042241;28;20042;-77
2021/04/11 05:18:52;;;;;;;10.10;8.87;;;5.60;90.60;;;;;;5023720;28;20029;-76
2021/04/11 05:21:23;;;;;;;8.73;7.57;;;5.70;90.60;;;;;;5028410;28;20044;-76
2021/04/11 05:23:54;;;;;;;6.37;5.77;;;5.70;90.40;;;;;;5029374;28;20022;-77
2021/04/11 05:26:30;;;;;;;7.00;5.50;;;5.70;90.30;;;;;;5027360;28;20235;-77
2021/04/11 05:28:56;;;;;;;6.27;5.40;;;5.70;90.40;;;;;;5010168;28;20088;-75
2021/04/11 05:31:27;;;;;;;6.90;5.07;;;5.80;90.40;;;;;;5018240;28;20065;-76
2021/04/11 05:33:54;;;;;;;4.23;3.87;;;5.80;90.40;;;;;;5028743;28;20531;-75
2021/04/11 05:36:25;;;;;;;3.97;3.60;;;5.80;90.20;;;;;;5028799;28;20520;-75
2021/04/11 05:39:02;;;;;;;3.80;3.37;;;5.80;90.10;;;;;;5030005;28;20032;-76
2021/04/11 05:41:37;;;;;;;4.20;3.63;;;5.80;90.20;;;;;;5029622;28;20478;-75
2021/04/11 05:44:15;;;;;;;3.43;2.70;;;5.80;90.20;;;;;;5027078;28;20034;-75
2021/04/11 05:47:01;;;;;;;4.00;3.27;;;5.90;90.30;;;;;;5010857;28;20029;-75
2021/04/11 05:49:43;;;;;;;3.33;2.90;;;6.00;90.00;;;;;;5025523;28;20021;-75
2021/04/11 05:52:14;;;;;;;3.00;2.70;;;5.90;89.80;;;;;;5060017;28;20069;-75
2021/04/11 05:54:48;;;;;;;3.13;2.83;;;6.00;89.90;;;;;;5030323;28;20078;-75
2021/04/11 05:57:25;;;;;;;3.20;2.87;;;6.00;89.40;;;;;;5027563;28;20060;-74
2021/04/11 06:00:14;;;;;;;3.00;2.80;;;5.90;89.40;;;;;;5028902;28;20029;-76
2021/04/11 06:02:42;;;;;;;2.70;2.50;;;6.00;89.90;;;;;;5017619;28;20081;-75
2021/04/11 06:05:12;;;;;;;3.30;3.00;;;6.20;90.00;;;;;;5027659;28;20490;-75
2021/04/11 06:07:52;;;;;;;2.40;2.20;;;6.20;88.90;;;;;;5028989;28;20057;-75
2021/04/11 06:10:21;;;;;;;2.27;1.83;;;6.10;88.80;;;;;;5025236;28;20106;-75
2021/04/11 06:12:57;;;;;;;2.77;2.57;;;6.10;89.10;;;;;;5025261;28;20042;-75
2021/04/11 06:15:40;;;;;;;2.67;1.90;;;6.10;89.30;;;;;;5029345;28;20065;-75
2021/04/11 06:18:08;;;;;;;1.83;1.60;;;6.20;89.40;;;;;;5026999;28;20059;-75
2021/04/11 06:20:36;;;;;;;1.80;1.47;;;6.30;89.20;;;;;;5028558;28;20025;-75
2021/04/11 06:23:23;;;;;;;1.50;1.33;;;6.40;89.30;;;;;;5028252;28;20395;-76
2021/04/11 06:26:04;;;;;;;2.50;1.20;;;6.40;88.90;;;;;;5030333;28;20440;-76
2021/04/11 06:28:47;;;;;;;2.47;1.30;;;6.40;88.30;;;;;;5027772;28;20381;-77
2021/04/11 06:31:25;;;;;;;2.30;1.30;;;6.40;88.30;;;;;;5053836;28;20041;-77
2021/04/11 06:33:57;;;;;;;1.63;1.20;;;6.40;88.30;;;;;;5032024;28;20025;-77
2021/04/11 06:36:40;;;;;;;1.10;1.00;;;6.40;88.60;;;;;;5031108;28;20894;-78
2021/04/11 06:39:12;;;;;;;1.47;1.13;;;6.40;88.10;;;;;;5032098;28;20120;-77
2021/04/11 06:42:15;;;;;;;1.43;1.10;;;6.40;88.40;;;;;;5030766;28;20021;-76
2021/04/11 06:44:58;;;;;;;3.17;1.40;;;6.50;88.40;;;;;;5064889;28;20044;-77
2021/04/11 06:47:52;;;;;;;1.57;1.20;;;6.60;88.20;;;;;;5032545;28;20091;-78
2021/04/11 06:50:44;;;;;;;2.05;1.45;;;6.50;88.30;;;;;;5064150;28;20588;-76
2021/04/11 06:53:30;;;;;;;6.30;1.27;;;6.50;88.10;;;;;;5062331;28;20053;-77
2021/04/11 06:55:59;;;;;;;2.37;1.40;;;6.60;88.40;;;;;;5026264;28;20072;-77
2021/04/11 06:58:47;;;;;;;2.80;1.20;;;6.60;88.20;;;;;;5030949;28;20027;-77
2021/04/11 07:01:21;;;;;;;2.47;1.60;;;6.50;88.10;;;;;;5030418;28;20385;-77
2021/04/11 07:04:11;;;;;;;3.47;1.40;;;6.50;88.30;;;;;;5032557;28;20029;-77
2021/04/11 07:07:24;;;;;;;2.43;1.53;;;6.40;88.30;;;;;;5032671;28;20038;-77
2021/04/11 07:09:59;;;;;;;2.03;1.50;;;6.30;87.80;;;;;;5027497;28;20033;-78
2021/04/11 07:12:56;;;;;;;4.00;1.90;;;6.20;87.70;;;;;;5022435;28;20034;-78
2021/04/11 07:15:48;;;;;;;2.77;1.50;;;6.20;88.30;;;;;;5023508;28;20043;-78
2021/04/11 07:18:44;;;;;;;2.07;1.70;;;6.20;88.40;;;;;;5023549;28;20083;-78
2021/04/11 07:21:10;;;;;;;2.77;1.53;;;6.30;89.00;;;;;;5027317;28;20378;-78
2021/04/11 07:23:44;;;;;;;1.53;1.23;;;6.30;88.80;;;;;;5049056;28;20036;-78
2021/04/11 07:26:33;;;;;;;2.20;1.30;;;6.30;88.90;;;;;;5080185;28;20552;-78
2021/04/11 07:29:22;;;;;;;3.77;2.53;;;6.30;89.10;;;;;;5046213;28;20086;-78
2021/04/11 07:32:14;;;;;;;3.97;2.23;;;6.50;89.20;;;;;;5027734;28;20069;-78
2021/04/11 07:34:49;;;;;;;5.43;4.17;;;6.40;88.30;;;;;;5024516;28;20458;-78
2021/04/11 07:37:24;;;;;;;7.50;5.33;;;6.30;88.50;;;;;;5064036;28;20635;-77
2021/04/11 07:40:07;;;;;;;6.30;4.77;;;6.40;88.70;;;;;;5031535;28;20083;-77
2021/04/11 07:43:10;;;;;;;12.23;7.73;;;6.40;88.40;;;;;;5053598;28;20049;-75
2021/04/11 07:45:49;;;;;;;9.32;5.70;;;6.60;89.00;;;;;;5048396;28;20117;-78
2021/04/11 07:48:59;;;;;;;8.27;4.23;;;6.70;88.70;;;;;;5029985;28;20049;-79
2021/04/11 07:51:46;;;;;;;10.27;7.00;;;6.60;87.70;;;;;;5048053;28;20084;-78
2021/04/11 07:54:49;;;;;;;8.47;5.93;;;6.70;88.30;;;;;;5062835;28;20038;-79
2021/04/11 07:57:39;;;;;;;4.77;2.87;;;6.60;87.80;;;;;;5029507;28;20030;-78
2021/04/11 08:00:30;;;;;;;8.00;5.97;;;6.50;87.40;;;;;;5029679;28;20308;-79
2021/04/11 08:02:59;;;;;;;7.93;5.73;;;6.40;87.60;;;;;;5031003;28;20049;-79
2021/04/11 08:05:25;;;;;;;7.97;5.50;;;6.40;87.60;;;;;;5018000;28;20158;-80
2021/04/11 08:08:15;;;;;;;9.17;6.57;;;6.40;87.50;;;;;;5032050;28;20033;-78
2021/04/11 08:11:14;;;;;;;12.27;7.53;;;6.40;87.60;;;;;;5031480;28;20129;-77
2021/04/11 08:14:08;;;;;;;12.47;8.27;;;6.40;87.90;;;;;;5032142;28;20056;-77
2021/04/11 08:16:55;;;;;;;14.00;9.63;;;6.40;88.00;;;;;;5027207;28;20065;-75
2021/04/11 08:19:36;;;;;;;10.17;7.00;;;6.50;88.00;;;;;;5021040;28;20382;-78
2021/04/11 08:22:37;;;;;;;10.27;7.03;;;6.60;87.50;;;;;;5054698;28;20037;-77
2021/04/11 08:25:29;;;;;;;21.10;13.77;;;6.50;87.30;;;;;;5031814;28;20033;-78
2021/04/11 08:28:32;;;;;;;18.15;12.05;;;6.50;87.60;;;;;;5026575;28;20763;-78
2021/04/11 08:31:12;;;;;;;24.20;15.02;;;6.60;87.60;;;;;;5027966;28;20167;-78
2021/04/11 08:33:59;;;;;;;19.63;13.50;;;6.60;87.50;;;;;;5028468;28;20029;-78
2021/04/11 08:36:51;;;;;;;28.40;17.30;;;6.80;87.60;;;;;;5052705;28;20033;-79
2021/04/11 08:39:44;;;;;;;13.70;7.90;;;6.80;87.60;;;;;;5040940;28;20029;-78
2021/04/11 08:42:19;;;;;;;26.90;16.43;;;6.90;87.00;;;;;;5030396;28;20037;-78
2021/04/11 08:45:02;;;;;;;16.20;11.13;;;7.00;86.90;;;;;;5063105;28;20120;-78
2021/04/11 08:47:39;;;;;;;18.70;11.10;;;7.10;86.40;;;;;;5027580;28;20469;-77
2021/04/11 08:50:18;;;;;;;14.80;8.20;;;7.20;86.00;;;;;;5026998;28;20022;-78
2021/04/11 08:52:55;;;;;;;18.20;9.50;;;7.30;85.10;;;;;;5027082;28;20033;-78
2021/04/11 08:55:52;;;;;;;27.40;17.27;;;7.40;83.90;;;;;;5027811;28;20527;-79
2021/04/11 08:58:52;;;;;;;14.80;10.07;;;7.40;83.90;;;;;;5026083;28;20133;-77
2021/04/11 09:01:26;;;;;;;11.63;7.83;;;7.50;83.80;;;;;;5010744;28;20033;-79
2021/04/11 09:03:57;;;;;;;20.53;12.27;;;7.40;83.40;;;;;;5015007;28;20030;-75
2021/04/11 09:06:42;;;;;;;8.57;5.17;;;7.40;83.70;;;;;;5061463;28;20072;-78
2021/04/11 09:09:26;;;;;;;15.90;10.40;;;7.40;83.60;;;;;;5014466;28;20111;-79
2021/04/11 09:12:25;;;;;;;10.97;5.47;;;7.40;84.10;;;;;;5025781;28;20032;-78
2021/04/11 09:15:04;;;;;;;16.80;9.60;;;7.30;83.90;;;;;;5063507;28;20413;-78
2021/04/11 09:18:07;;;;;;;14.50;7.80;;;7.20;84.50;;;;;;5021862;28;20028;-79
2021/04/11 09:20:41;;;;;;;26.15;15.77;;;7.30;84.90;;;;;;5016915;28;20474;-79
2021/04/11 09:23:32;;;;;;;17.73;10.83;;;7.40;85.40;;;;;;5021668;28;20022;-79
2021/04/11 09:26:25;;;;;;;10.27;5.30;;;7.60;85.40;;;;;;5026646;28;20025;-77
2021/04/11 09:29:11;;;;;;;13.32;7.57;;;7.50;84.00;;;;;;5029264;28;20022;-79
2021/04/11 09:31:57;;;;;;;23.70;15.07;;;7.50;84.00;;;;;;5027959;28;20037;-80
2021/04/11 09:34:49;;;;;;;19.00;11.13;;;7.40;84.40;;;;;;5028648;28;20021;-79
2021/04/11 09:37:55;;;;;;;15.10;8.73;;;7.40;83.40;;;;;;5046604;28;20131;-79
2021/04/11 09:40:58;;;;;;;13.63;6.63;;;7.40;83.10;;;;;;5042048;28;20021;-79
2021/04/11 09:43:33;;;;;;;8.60;5.60;;;7.30;82.80;;;;;;5045200;28;20041;-77
2021/04/11 09:46:14;;;;;;;6.03;3.73;;;7.20;83.30;;;;;;5026322;28;20109;-79
2021/04/11 09:48:59;;;;;;;9.83;5.97;;;7.20;83.30;;;;;;5018029;28;20048;-79
2021/04/11 09:51:30;;;;;;;7.73;5.27;;;7.30;83.00;;;;;;5058258;28;20045;-80
2021/04/11 09:54:17;;;;;;;6.07;4.07;;;7.40;82.40;;;;;;5058212;28;20112;-80
2021/04/11 09:57:18;;;;;;;19.63;12.53;;;7.40;82.50;;;;;;5008581;28;20049;-81
2021/04/11 10:00:01;;;;;;;20.67;14.40;;;7.50;83.40;;;;;;5024011;28;20523;-80
2021/04/11 10:03:00;;;;;;;16.15;9.52;;;7.60;83.60;;;;;;5055177;28;20032;-80
2021/04/11 10:06:08;;;;;;;18.73;12.80;;;7.60;82.20;;;;;;5029170;28;20104;-78
2021/04/11 10:08:58;;;;;;;13.93;8.87;;;7.60;82.70;;;;;;5026995;28;20026;-80
2021/04/11 10:11:31;;;;;;;12.03;6.97;;;7.70;82.40;;;;;;5022482;28;20616;-77
2021/04/11 10:14:00;;;;;;;12.83;8.30;;;7.70;82.20;;;;;;5028419;28;20021;-81
2021/04/11 10:16:40;;;;;;;26.97;19.60;;;7.80;82.20;;;;;;5027597;28;20037;-78
2021/04/11 10:19:27;;;;;;;13.27;10.07;;;7.80;81.60;;;;;;5057660;28;20564;-80
2021/04/11 10:21:57;;;;;;;11.87;7.40;;;7.70;81.00;;;;;;5060481;28;20215;-79
2021/04/11 10:24:26;;;;;;;17.80;11.03;;;7.70;80.60;;;;;;5029700;28;20029;-76
2021/04/11 10:26:57;;;;;;;11.50;6.43;;;7.80;81.10;;;;;;5030133;28;20044;-79
2021/04/11 10:29:26;;;;;;;9.27;6.87;;;8.10;80.40;;;;;;5043803;28;20541;-77
2021/04/11 10:32:26;;;;;;;17.53;11.17;;;8.30;79.70;;;;;;5027581;28;20037;-78
2021/04/11 10:35:19;;;;;;;11.93;8.60;;;8.50;79.70;;;;;;5029803;28;20040;-78
2021/04/11 10:37:46;;;;;;;12.57;9.07;;;8.50;77.40;;;;;;5026035;28;20060;-79
2021/04/11 10:40:25;;;;;;;9.07;6.30;;;8.40;78.30;;;;;;5030066;28;20113;-81
2021/04/11 10:43:17;;;;;;;15.13;6.97;;;8.30;78.60;;;;;;5028065;28;20018;-79
2021/04/11 10:46:03;;;;;;;6.87;4.30;;;8.40;79.20;;;;;;5028886;28;20034;-79
2021/04/11 10:48:57;;;;;;;8.77;5.67;;;8.40;77.60;;;;;;5016959;28;20037;-78
2021/04/11 10:51:37;;;;;;;17.15;10.48;;;8.60;77.80;;;;;;5061028;28;20397;-78
2021/04/11 10:54:41;;;;;;;9.23;5.80;;;8.90;78.10;;;;;;5042238;28;20358;-78
2021/04/11 10:57:16;;;;;;;6.63;3.95;;;9.00;76.10;;;;;;5021413;28;20038;-78
2021/04/11 11:00:15;;;;;;;10.53;6.53;;;8.90;76.00;;;;;;5041025;28;20029;-78
2021/04/11 11:03:12;;;;;;;14.30;8.20;;;8.90;76.30;;;;;;5020988;28;20033;-78
2021/04/11 11:06:06;;;;;;;10.20;6.93;;;8.90;76.60;;;;;;5020910;28;20060;-80
2021/04/11 11:09:05;;;;;;;9.40;4.33;;;8.80;75.70;;;;;;5061349;28;20061;-78
2021/04/11 11:12:05;;;;;;;13.33;8.30;;;8.50;75.70;;;;;;5060330;28;20033;-77
2021/04/11 11:15:09;;;;;;;19.57;13.00;;;8.40;77.00;;;;;;5061174;28;20064;-77
2021/04/11 11:18:12;;;;;;;8.57;4.63;;;8.50;77.90;;;;;;5028319;28;20021;-78
2021/04/11 11:20:47;;;;;;;11.20;6.85;;;8.50;77.30;;;;;;5060650;28;20485;-78
2021/04/11 11:23:40;;;;;;;17.60;10.30;;;8.50;77.10;;;;;;5031128;28;20040;-78
2021/04/11 11:26:35;;;;;;;;;;;8.50;77.30;;;;;;5031500;28;20049;-77
2021/04/11 11:29:27;;;;;;;6.93;3.33;;;8.70;77.10;;;;;;4979401;28;19936;-77
2021/04/11 11:32:19;;;;;;;13.48;6.80;;;8.80;76.10;;;;;;5044146;28;20109;-78
2021/04/11 11:34:55;;;;;;;6.77;4.93;;;8.80;76.20;;;;;;5043962;28;20033;-77
2021/04/11 11:37:32;;;;;;;12.33;8.37;;;8.80;76.30;;;;;;5022451;28;20032;-78
2021/04/11 11:40:10;;;;;;;9.17;4.43;;;8.80;76.60;;;;;;5055205;28;20052;-77
2021/04/11 11:43:06;;;;;;;17.20;10.63;;;8.70;75.70;;;;;;5058172;28;20030;-76
2021/04/11 11:45:58;;;;;;;11.07;7.37;;;8.70;77.00;;;;;;5021628;28;20029;-77
2021/04/11 11:48:27;;;;;;;7.07;3.47;;;9.00;76.80;;;;;;5056911;28;20026;-76
2021/04/11 11:51:11;;;;;;;6.60;3.70;;;9.00;76.00;;;;;;5066009;28;20080;-78
2021/04/11 11:53:46;;;;;;;7.00;4.33;;;8.90;75.90;;;;;;5037854;28;20025;-77
2021/04/11 11:56:41;;;;;;;11.43;6.27;;;8.80;75.50;;;;;;5036787;28;20033;-77
2021/04/11 11:59:21;;;;;;;5.37;3.03;;;8.80;76.10;;;;;;5009291;28;20100;-78
2021/04/11 12:02:04;;;;;;;14.00;7.80;;;8.70;75.60;;;;;;5024037;28;20040;-78
2021/04/11 12:04:48;;;;;;;11.95;7.43;;;8.70;76.20;;;;;;5032137;28;20080;-79
2021/04/11 12:07:41;;;;;;;9.60;5.47;;;8.80;76.50;;;;;;5030362;28;20051;-78
2021/04/11 12:10:27;;;;;;;8.75;5.68;;;9.10;76.50;;;;;;5063484;28;20052;-78
2021/04/11 12:13:00;;;;;;;7.83;4.63;;;9.20;75.70;;;;;;5030961;28;20026;-76
2021/04/11 12:15:32;;;;;;;10.67;6.73;;;9.30;75.00;;;;;;5032427;28;20136;-75
2021/04/11 12:18:07;;;;;;;17.03;11.60;;;9.40;75.30;;;;;;5027716;28;20179;-76
2021/04/11 12:21:02;;;;;;;27.67;18.17;;;9.70;75.60;;;;;;5057657;28;20049;-76
2021/04/11 12:23:38;;;;;;;11.97;7.00;;;10.10;75.90;;;;;;5019179;28;20042;-79
2021/04/11 12:26:10;;;;;;;16.20;9.47;;;10.10;73.40;;;;;;5020597;28;20033;-78
2021/04/11 12:28:37;;;;;;;19.30;12.90;;;9.90;73.80;;;;;;5026733;28;20025;-77
2021/04/11 12:31:30;;;;;;;19.50;12.57;;;9.90;74.50;;;;;;5025719;28;20696;-77
2021/04/11 12:34:15;;;;;;;8.02;5.00;;;9.80;74.50;;;;;;5043361;28;20512;-76
2021/04/11 12:36:49;;;;;;;26.20;16.27;;;9.70;73.80;;;;;;5021489;28;20139;-76
2021/04/11 12:39:23;;;;;;;13.03;8.57;;;9.50;74.50;;;;;;5029134;28;20029;-76
2021/04/11 12:41:58;;;;;;;12.53;7.40;;;9.40;74.60;;;;;;5027218;28;20061;-77
2021/04/11 12:44:36;;;;;;;10.20;6.97;;;9.20;74.40;;;;;;5053803;28;20038;-77
2021/04/11 12:47:16;;;;;;;18.70;13.27;;;9.10;74.90;;;;;;5032494;28;20056;-77
2021/04/11 12:50:06;;;;;;;28.30;17.10;;;9.00;75.00;;;;;;5029405;28;20025;-77
2021/04/11 12:53:00;;;;;;;14.50;8.57;;;9.00;75.50;;;;;;5062805;28;20382;-77
2021/04/11 12:55:41;;;;;;;18.87;11.80;;;9.00;75.40;;;;;;5027018;28;20053;-77
2021/04/11 12:58:29;;;;;;;17.30;9.73;;;9.20;75.80;;;;;;5029900;28;20065;-75
2021/04/11 13:01:04;;;;;;;18.27;11.13;;;9.20;75.10;;;;;;5029658;28;20061;-76
2021/04/11 13:03:39;;;;;;;11.33;6.37;;;9.30;75.40;;;;;;5043269;28;20124;-76
2021/04/11 13:06:13;;;;;;;17.93;9.70;;;9.40;74.30;;;;;;5013235;28;20161;-76
2021/04/11 13:08:54;;;;;;;16.17;10.03;;;9.50;74.40;;;;;;5010961;28;20026;-77
2021/04/11 13:11:33;;;;;;;11.33;6.87;;;9.60;74.10;;;;;;5030422;28;20108;-76
2021/04/11 13:14:01;;;;;;;10.40;6.77;;;9.70;73.30;;;;;;5028994;28;20029;-76
2021/04/11 13:16:48;;;;;;;20.80;12.80;;;9.50;72.30;;;;;;5028476;28;20099;-75
2021/04/11 13:19:25;;;;;;;13.93;7.93;;;9.40;73.30;;;;;;5028499;28;20706;-76
2021/04/11 13:22:15;;;;;;;13.90;9.03;;;9.30;73.30;;;;;;5025682;28;20034;-77
2021/04/11 13:25:05;;;;;;;10.37;5.33;;;9.50;73.90;;;;;;5026573;28;20029;-77
2021/04/11 13:27:38;;;;;;;8.67;5.67;;;9.40;73.00;;;;;;5029911;28;20397;-78
2021/04/11 13:30:13;;;;;;;8.68;5.20;;;9.40;72.70;;;;;;5029044;28;20025;-78
2021/04/11 13:33:03;;;;;;;11.10;5.63;;;9.40;72.60;;;;;;5029133;28;20025;-78
2021/04/11 13:35:52;;;;;;;11.97;6.63;;;9.50;72.40;;;;;;5028066;28;20033;-77
2021/04/11 13:38:28;;;;;;;9.07;5.77;;;9.70;72.90;;;;;;5028715;28;20041;-76
2021/04/11 13:41:29;;;;;;;8.40;5.10;;;9.80;72.60;;;;;;5025687;28;20101;-77
2021/04/11 13:44:49;;;;;;;15.30;9.33;;;9.90;71.80;;;;;;5030085;28;20040;-76
2021/04/11 14:01:18;;;;;;;7.53;4.40;;;9.60;70.90;;;;;;5137245;27;20181;-83
2021/04/11 14:03:55;;;;;;;8.63;6.40;;;9.40;70.50;;;;;;5107544;28;20024;-81